Time;durP1;ratioP1;P1;durP2;ratioP2;P2;SDS_P1;SDS_P2;PMS_P1;PMS_P2;Temp;Humidity;BMP_temperature;BMP_pressure;BME280_temperature;BME280_humidity;BME280_pressure;Samples;Min_cycle;Max_cycle;Signal;HPM_P1;HPM_P2
2023/03/17 00:04:52;;;;;;;2.08;0.73;;;9.60;1.00;;;;;;25900605;22;20098;-42
2023/03/17 00:14:53;;;;;;;1.20;0.70;;;9.40;1.00;;;;;;25887711;22;20029;-42
2023/03/17 00:24:54;;;;;;;1.48;0.50;;;9.40;1.00;;;;;;25874985;22;20080;-42
2023/03/17 00:34:56;;;;;;;1.58;0.80;;;9.30;1.00;;;;;;25895233;22;20181;-42
2023/03/17 00:44:57;;;;;;;2.60;1.00;;;9.20;1.00;;;;;;25901985;22;20019;-42
2023/03/17 00:54:58;;;;;;;2.42;1.05;;;9.10;1.00;;;;;;25879375;22;20019;-42
2023/03/17 01:04:59;;;;;;;1.40;0.73;;;9.00;1.00;;;;;;25897288;22;20511;-42
2023/03/17 01:15:00;;;;;;;2.38;1.30;;;8.90;1.00;;;;;;25901239;22;20019;-42
2023/03/17 01:25:02;;;;;;;1.83;0.88;;;8.70;1.00;;;;;;25890601;22;20012;-42
2023/03/17 01:35:03;;;;;;;1.65;0.70;;;8.60;1.00;;;;;;25893312;22;20334;-42
2023/03/17 01:45:07;;;;;;;2.65;1.20;;;8.60;1.00;;;;;;25901037;22;20323;-40
2023/03/17 01:55:13;;;;;;;1.70;0.80;;;8.60;1.00;;;;;;25899119;22;20200;-40
2023/03/17 02:05:18;;;;;;;2.90;0.90;;;8.70;1.00;;;;;;25906778;22;20074;-40
2023/03/17 02:15:20;;;;;;;1.58;0.60;;;8.70;1.00;;;;;;25909114;22;20743;-40
2023/03/17 02:25:23;;;;;;;1.80;1.00;;;8.70;1.00;;;;;;25904600;22;20416;-40
2023/03/17 02:35:24;;;;;;;1.90;0.90;;;8.70;1.00;;;;;;25897587;22;20016;-42
2023/03/17 02:45:26;;;;;;;2.00;0.82;;;8.70;1.00;;;;;;25906360;22;20352;-42
2023/03/17 02:55:27;;;;;;;2.15;1.33;;;8.60;1.00;;;;;;25900416;22;20215;-42
2023/03/17 03:05:28;;;;;;;4.80;1.55;;;8.70;1.00;;;;;;25902249;22;20341;-42
2023/03/17 03:15:29;;;;;;;1.92;1.10;;;8.60;1.00;;;;;;25878750;22;20565;-42
2023/03/17 03:25:31;;;;;;;3.13;1.40;;;8.70;1.00;;;;;;25899835;22;20056;-42
2023/03/17 03:35:33;;;;;;;2.28;0.98;;;8.80;1.00;;;;;;25885674;22;20038;-42
2023/03/17 03:45:34;;;;;;;2.85;1.48;;;8.80;1.00;;;;;;25905651;22;20026;-40
2023/03/17 03:55:35;;;;;;;1.48;0.68;;;8.90;1.00;;;;;;25900513;22;20020;-40
2023/03/17 04:05:36;;;;;;;3.33;0.65;;;8.90;1.00;;;;;;25899302;22;20018;-40
2023/03/17 04:15:37;;;;;;;3.00;0.63;;;8.90;1.00;;;;;;25902420;22;20016;-40
2023/03/17 04:25:38;;;;;;;3.45;1.10;;;8.90;1.00;;;;;;25901879;22;20445;-40
2023/03/17 04:35:40;;;;;;;3.53;0.75;;;8.80;1.00;;;;;;25898679;22;20050;-40
2023/03/17 04:45:41;;;;;;;2.67;0.90;;;8.90;1.00;;;;;;25898560;22;20479;-40
2023/03/17 04:55:42;;;;;;;1.50;1.13;;;8.90;1.00;;;;;;25897251;22;20023;-40
2023/03/17 05:05:43;;;;;;;3.08;0.70;;;8.90;1.00;;;;;;25901138;22;20016;-40
2023/03/17 05:15:50;;;;;;;2.13;1.17;;;8.90;1.00;;;;;;25895598;22;20352;-41
2023/03/17 05:25:51;;;;;;;2.08;1.15;;;8.90;1.00;;;;;;25898636;22;20391;-41
2023/03/17 05:35:52;;;;;;;1.17;0.70;;;8.90;1.00;;;;;;25893811;22;20042;-41
2023/03/17 05:45:54;;;;;;;2.50;1.13;;;9.00;1.00;;;;;;25905040;22;20014;-41
2023/03/17 05:55:55;;;;;;;1.63;0.90;;;8.90;1.00;;;;;;25910088;22;20020;-41
2023/03/17 06:05:56;;;;;;;2.33;0.98;;;9.00;1.00;;;;;;25901295;22;20011;-41
2023/03/17 06:15:58;;;;;;;3.97;1.13;;;9.00;1.00;;;;;;25906155;22;20445;-41
2023/03/17 06:25:59;;;;;;;3.33;1.45;;;8.90;1.00;;;;;;25912310;22;20015;-41
2023/03/17 06:36:00;;;;;;;1.88;1.02;;;8.80;1.00;;;;;;25908830;22;20516;-41
2023/03/17 06:46:02;;;;;;;4.38;1.65;;;8.90;1.00;;;;;;25911413;22;20327;-41
2023/03/17 06:56:03;;;;;;;1.48;0.85;;;8.90;1.00;;;;;;25920864;22;20008;-41
2023/03/17 07:06:05;;;;;;;2.08;1.00;;;9.10;1.00;;;;;;25915212;22;20601;-41
2023/03/17 07:16:06;;;;;;;5.07;2.35;;;9.20;1.00;;;;;;25908006;22;20038;-41
2023/03/17 07:26:08;;;;;;;3.30;1.13;;;9.30;1.00;;;;;;25915961;22;20012;-41
2023/03/17 07:36:09;;;;;;;3.63;1.48;;;9.40;1.00;;;;;;25893755;22;20465;-41
2023/03/17 07:46:11;;;;;;;6.25;1.75;;;9.60;1.00;;;;;;25906955;22;20091;-41
2023/03/17 07:56:13;;;;;;;3.80;1.13;;;9.80;1.00;;;;;;25904010;22;20030;-41
2023/03/17 08:06:14;;;;;;;2.60;1.40;;;10.10;1.00;;;;;;25900084;22;20026;-41
2023/03/17 08:16:15;;;;;;;2.58;1.15;;;10.50;1.00;;;;;;25848703;22;20018;-42
2023/03/17 08:26:17;;;;;;;7.05;1.52;;;10.80;1.00;;;;;;25902218;22;20033;-42
2023/03/17 08:36:19;;;;;;;3.10;1.15;;;11.20;1.00;;;;;;25887931;22;20341;-42
2023/03/17 08:46:27;;;;;;;1.52;0.80;;;11.70;1.00;;;;;;25859165;22;20008;-42
2023/03/17 08:56:28;;;;;;;;;;;12.10;1.00;;;;;;25882644;22;20099;-42
2023/03/17 09:06:30;;;;;;;2.85;1.15;;;12.40;1.00;;;;;;25849072;22;19909;-42
2023/03/17 09:16:33;;;;;;;4.63;1.00;;;12.60;1.00;;;;;;25882189;22;20020;-42
2023/03/17 09:26:34;;;;;;;3.55;1.65;;;12.80;1.00;;;;;;25872485;22;20520;-43
2023/03/17 09:36:36;;;;;;;2.00;1.00;;;13.00;1.00;;;;;;25891290;22;20418;-41
2023/03/17 09:46:59;;;;;;;2.53;0.82;;;13.30;1.00;;;;;;25865489;22;20355;-41
2023/03/17 09:57:29;;;;;;;6.75;1.30;;;13.40;1.00;;;;;;25876877;22;20720;-41
2023/03/17 10:08:05;;;;;;;1.98;0.77;;;13.60;1.00;;;;;;25882175;22;20739;-41
2023/03/17 10:18:14;;;;;;;3.75;1.65;;;13.50;1.00;;;;;;25892436;22;20026;-42
2023/03/17 10:28:19;;;;;;;2.67;1.35;;;14.20;1.00;;;;;;25894115;22;20039;-41
2023/03/17 10:38:21;;;;;;;1.77;0.88;;;14.80;1.00;;;;;;25901470;22;20031;-41
2023/03/17 10:48:23;;;;;;;2.03;1.15;;;14.80;1.00;;;;;;25900056;22;20016;-41
2023/03/17 10:58:48;;;;;;;1.95;0.65;;;14.70;1.00;;;;;;25899494;22;20016;-41
2023/03/17 11:08:53;;;;;;;3.15;1.00;;;14.80;1.00;;;;;;25905555;22;21363;-41
2023/03/17 11:18:58;;;;;;;3.38;1.73;;;14.50;1.00;;;;;;25914708;22;20020;-42
2023/03/17 11:29:21;;;;;;;1.75;1.08;;;14.40;1.00;;;;;;25908555;22;20012;-41
2023/03/17 11:39:26;;;;;;;3.00;1.77;;;14.50;1.00;;;;;;25908478;22;20122;-41
2023/03/17 11:49:36;;;;;;;3.45;1.88;;;15.10;1.00;;;;;;25902888;22;21361;-41
2023/03/17 11:59:51;;;;;;;2.65;1.38;;;15.60;1.00;;;;;;25911934;22;20016;-41
2023/03/17 12:10:35;;;;;;;2.97;1.35;;;15.40;1.00;;;;;;25893372;22;20016;-41
2023/03/17 12:20:45;;;;;;;4.32;1.80;;;16.00;1.00;;;;;;25875003;22;20027;-41
2023/03/17 12:31:00;;;;;;;5.00;2.30;;;16.00;1.00;;;;;;25900631;22;20062;-42
2023/03/17 12:41:35;;;;;;;2.45;1.30;;;16.20;1.00;;;;;;25901307;22;20015;-41
2023/03/17 12:52:12;;;;;;;2.97;1.80;;;16.10;1.00;;;;;;25893117;22;20392;-41
2023/03/17 13:02:37;;;;;;;6.15;2.63;;;16.10;1.00;;;;;;25893856;22;20392;-41
2023/03/17 13:12:41;;;;;;;3.90;2.20;;;15.80;1.00;;;;;;25890224;22;21519;-41
2023/03/17 13:23:01;;;;;;;6.10;2.42;;;15.60;1.00;;;;;;25894873;22;20038;-41
2023/03/17 13:33:08;;;;;;;4.00;2.33;;;16.30;1.00;;;;;;25896337;22;20004;-41
2023/03/17 13:43:38;;;;;;;2.37;1.20;;;17.30;1.00;;;;;;25884455;22;20610;-41
2023/03/17 13:53:54;;;;;;;2.28;1.15;;;17.40;1.00;;;;;;25892615;22;20476;-41
2023/03/17 14:03:55;;;;;;;4.88;2.03;;;16.20;1.00;;;;;;25886470;22;20016;-41
2023/03/17 14:14:08;;;;;;;6.65;1.60;;;16.00;1.00;;;;;;25880106;22;20033;-41
2023/03/17 14:24:30;;;;;;;3.03;1.40;;;16.60;1.00;;;;;;25908434;22;20494;-41
2023/03/17 14:34:32;;;;;;;3.88;1.95;;;16.70;1.00;;;;;;25879299;22;20514;-41
2023/03/17 14:44:38;;;;;;;3.13;1.20;;;17.10;1.00;;;;;;25896565;22;20049;-41
2023/03/17 14:54:42;;;;;;;3.28;1.60;;;17.70;1.00;;;;;;25845197;22;20022;-41
2023/03/17 15:05:10;;;;;;;4.57;1.63;;;18.00;1.00;;;;;;25911619;22;20532;-41
2023/03/17 15:15:22;;;;;;;4.10;1.83;;;17.50;1.00;;;;;;25920661;22;20019;-41
2023/03/17 15:25:42;;;;;;;4.63;1.83;;;16.80;1.00;;;;;;25916412;22;20412;-41
2023/03/17 15:35:43;;;;;;;2.22;1.02;;;16.40;1.00;;;;;;25877041;22;20529;-41
2023/03/17 15:45:44;;;;;;;1.73;0.95;;;16.40;1.00;;;;;;25900292;22;20023;-41
2023/03/17 15:55:46;;;;;;;3.75;1.30;;;16.30;1.00;;;;;;25883567;22;20022;-41
2023/03/17 16:05:47;;;;;;;3.67;1.10;;;16.20;1.00;;;;;;25885644;22;20633;-41
2023/03/17 16:15:56;;;;;;;5.45;1.05;;;16.10;1.00;;;;;;25913428;22;20025;-41
2023/03/17 16:25:57;;;;;;;2.70;1.35;;;15.90;1.00;;;;;;25912022;22;20004;-41
2023/03/17 16:35:59;;;;;;;3.58;1.60;;;15.80;1.00;;;;;;25917270;22;20034;-40
2023/03/17 16:46:02;;;;;;;2.85;1.63;;;15.80;1.00;;;;;;25917941;22;20106;-41
2023/03/17 16:56:11;;;;;;;3.20;2.15;;;15.80;1.00;;;;;;25894897;22;20011;-41
2023/03/17 17:06:13;;;;;;;3.25;1.52;;;15.70;1.00;;;;;;25872879;22;20430;-41
2023/03/17 17:16:28;;;;;;;2.33;1.25;;;15.60;1.00;;;;;;25917853;22;20158;-41
2023/03/17 17:26:29;;;;;;;4.40;1.13;;;15.50;1.00;;;;;;25906220;22;20553;-41
2023/03/17 17:36:30;;;;;;;2.58;1.20;;;15.30;1.00;;;;;;25885814;22;20141;-41
2023/03/17 17:46:31;;;;;;;3.00;1.30;;;15.10;1.00;;;;;;25914862;22;20019;-41
2023/03/17 17:56:35;;;;;;;3.80;1.48;;;15.00;1.00;;;;;;25915883;22;20015;-41
2023/03/17 18:06:36;;;;;;;3.50;2.03;;;15.00;1.00;;;;;;25903136;22;20016;-41
2023/03/17 18:16:37;;;;;;;4.53;2.67;;;14.80;1.00;;;;;;25900424;22;20041;-41
2023/03/17 18:26:38;;;;;;;6.20;3.53;;;14.70;1.00;;;;;;25906107;22;20124;-40
2023/03/17 18:36:40;;;;;;;4.78;2.55;;;14.60;1.00;;;;;;25898574;22;20032;-41
2023/03/17 18:46:41;;;;;;;8.30;4.97;;;14.60;1.00;;;;;;25903562;22;20038;-41
2023/03/17 18:56:42;;;;;;;7.82;2.47;;;14.50;1.00;;;;;;25893175;22;20031;-41
2023/03/17 19:06:44;;;;;;;7.00;2.97;;;14.50;1.00;;;;;;25898854;22;20016;-41
2023/03/17 19:16:45;;;;;;;5.03;3.30;;;14.40;1.00;;;;;;25915388;22;20085;-40
2023/03/17 19:26:46;;;;;;;4.82;2.40;;;14.40;1.00;;;;;;25921774;22;20086;-41
2023/03/17 19:36:47;;;;;;;3.22;2.17;;;14.30;1.00;;;;;;25917979;22;20333;-41
2023/03/17 19:46:49;;;;;;;6.18;3.22;;;14.30;1.00;;;;;;25917203;22;20016;-41
2023/03/17 19:56:50;;;;;;;6.40;2.90;;;14.20;1.00;;;;;;25917557;22;20087;-41
2023/03/17 20:06:54;;;;;;;3.22;1.90;;;14.30;1.00;;;;;;25917047;22;20083;-41
2023/03/17 20:16:55;;;;;;;2.80;1.60;;;14.30;1.00;;;;;;25922659;22;20104;-40
2023/03/17 20:26:58;;;;;;;4.35;1.50;;;14.40;1.00;;;;;;25922375;22;20090;-41
2023/03/17 20:37:01;;;;;;;5.03;2.90;;;14.40;1.00;;;;;;25919907;22;20110;-41
2023/03/17 20:47:02;;;;;;;3.95;2.70;;;14.40;1.00;;;;;;25915111;22;20194;-41
2023/03/17 20:57:03;;;;;;;4.85;2.25;;;14.30;1.00;;;;;;25921826;22;20098;-40
2023/03/17 21:07:04;;;;;;;12.65;4.53;;;14.30;1.00;;;;;;25922380;22;20525;-41
2023/03/17 21:17:06;;;;;;;4.07;2.65;;;14.20;1.00;;;;;;25914958;22;20357;-41
2023/03/17 21:27:10;;;;;;;3.92;1.58;;;14.10;1.00;;;;;;25923126;22;20662;-40
2023/03/17 21:37:11;;;;;;;6.10;2.85;;;14.10;1.00;;;;;;25917351;22;20030;-40
2023/03/17 21:47:12;;;;;;;4.35;2.10;;;14.00;1.00;;;;;;25911794;22;20102;-41
2023/03/17 21:57:13;;;;;;;3.72;2.10;;;13.80;1.00;;;;;;25918569;22;20042;-41
2023/03/17 22:07:15;;;;;;;5.88;2.67;;;13.70;1.00;;;;;;25920634;22;20118;-40
2023/03/17 22:17:16;;;;;;;6.68;3.08;;;13.50;1.00;;;;;;25914578;22;20022;-40
2023/03/17 22:27:17;;;;;;;6.85;2.45;;;13.50;1.00;;;;;;25926205;22;20098;-40
2023/03/17 22:37:18;;;;;;;6.13;2.50;;;13.40;1.00;;;;;;25924401;22;20023;-41
2023/03/17 22:47:20;;;;;;;5.13;2.45;;;13.20;1.00;;;;;;25924109;22;20011;-41
2023/03/17 22:57:21;;;;;;;4.05;2.42;;;13.00;1.00;;;;;;25928184;22;20110;-41
2023/03/17 23:07:22;;;;;;;5.65;3.25;;;13.00;1.00;;;;;;25922559;22;20354;-41
2023/03/17 23:17:23;;;;;;;5.90;2.97;;;12.80;1.00;;;;;;25921231;22;20026;-41
2023/03/17 23:27:24;;;;;;;5.22;3.03;;;12.60;1.00;;;;;;25928906;22;20353;-41
2023/03/17 23:37:26;;;;;;;6.55;3.47;;;12.40;1.00;;;;;;25920859;22;20058;-41
2023/03/17 23:47:27;;;;;;;5.25;2.58;;;12.20;1.00;;;;;;25923585;22;20027;-41
2023/03/17 23:57:29;;;;;;;3.55;2.08;;;12.00;1.00;;;;;;25892544;22;20096;-41
